Time;durP1;ratioP1;P1;durP2;ratioP2;P2;SDS_P1;SDS_P2;PMS_P1;PMS_P2;Temp;Humidity;BMP_temperature;BMP_pressure;BME280_temperature;BME280_humidity;BME280_pressure;Samples;Min_cycle;Max_cycle;Signal;HPM_P1;HPM_P2
2024/02/21 00:00:17;;;;;;;20.10;4.60;;;9.80;90.00;;;;;;5041080;28;20932;-82
2024/02/21 00:02:41;;;;;;;26.45;5.45;;;9.80;92.00;;;;;;5040089;28;20209;-82
2024/02/21 00:05:07;;;;;;;23.50;5.23;;;9.70;91.80;;;;;;5040801;28;20150;-82
2024/02/21 00:07:33;;;;;;;21.13;4.63;;;9.70;91.90;;;;;;5040694;28;20158;-82
2024/02/21 00:09:59;;;;;;;25.93;4.63;;;9.70;93.70;;;;;;5040602;28;20186;-82
2024/02/21 00:12:24;;;;;;;20.73;5.00;;;9.70;94.80;;;;;;5040735;28;20654;-82
2024/02/21 00:14:50;;;;;;;23.50;4.80;;;9.70;94.80;;;;;;5040694;28;20264;-82
2024/02/21 00:17:18;;;;;;;27.77;4.70;;;9.70;95.50;;;;;;5040603;28;20189;-82
2024/02/21 00:19:44;;;;;;;21.75;5.15;;;9.60;96.60;;;;;;5038704;28;20182;-82
2024/02/21 00:22:10;;;;;;;22.77;5.10;;;9.60;97.70;;;;;;5039429;28;20177;-81
2024/02/21 00:24:35;;;;;;;25.80;6.17;;;9.60;98.30;;;;;;5038190;28;20177;-81
2024/02/21 00:27:01;;;;;;;22.03;4.13;;;9.60;98.10;;;;;;5037847;28;20180;-81
2024/02/21 00:29:27;;;;;;;29.07;5.17;;;9.70;96.30;;;;;;5037535;28;20205;-81
2024/02/21 00:31:53;;;;;;;20.10;4.72;;;9.80;97.00;;;;;;5038139;28;20166;-81
2024/02/21 00:34:18;;;;;;;24.40;5.37;;;9.80;93.10;;;;;;5037539;28;20244;-81
2024/02/21 00:36:44;;;;;;;23.73;5.80;;;9.70;93.50;;;;;;5038068;28;20504;-81
2024/02/21 00:39:09;;;;;;;22.43;4.80;;;9.70;93.40;;;;;;5020292;28;20166;-81
2024/02/21 00:41:35;;;;;;;23.30;5.00;;;9.70;92.90;;;;;;5019585;28;20284;-81
2024/02/21 00:44:01;;;;;;;19.33;4.90;;;9.70;93.20;;;;;;5037374;28;20174;-81
2024/02/21 00:46:27;;;;;;;20.67;5.13;;;9.60;95.00;;;;;;5035961;28;20238;-81
2024/02/21 00:48:52;;;;;;;24.53;5.00;;;9.60;96.20;;;;;;5019386;28;20697;-81
2024/02/21 00:51:18;;;;;;;20.20;4.77;;;9.50;97.80;;;;;;5018826;28;20221;-81
2024/02/21 00:53:43;;;;;;;27.37;4.77;;;9.60;99.30;;;;;;5036833;28;20280;-81
2024/02/21 00:56:09;;;;;;;26.00;5.23;;;9.60;97.30;;;;;;5036983;28;20165;-81
2024/02/21 00:58:35;;;;;;;20.90;4.87;;;9.60;98.00;;;;;;5036889;28;20162;-81
2024/02/21 01:01:01;;;;;;;19.60;4.50;;;9.60;97.70;;;;;;5037032;28;20185;-81
2024/02/21 01:03:27;;;;;;;18.20;3.55;;;9.60;98.20;;;;;;5037392;28;20158;-81
2024/02/21 01:05:52;;;;;;;24.00;5.10;;;9.50;99.90;;;;;;5037106;28;20173;-81
2024/02/21 01:08:18;;;;;;;23.33;5.10;;;9.50;99.90;;;;;;5037090;28;20593;-81
2024/02/21 01:10:44;;;;;;;23.40;4.40;;;9.50;99.90;;;;;;5037443;28;20269;-81
2024/02/21 01:13:09;;;;;;;19.70;4.50;;;9.50;99.90;;;;;;5036923;28;20663;-81
2024/02/21 01:15:35;;;;;;;23.13;5.50;;;9.40;99.90;;;;;;5037367;28;20194;-81
2024/02/21 01:18:01;;;;;;;20.07;4.00;;;9.40;99.90;;;;;;5036745;28;20399;-81
2024/02/21 01:20:27;;;;;;;25.13;5.03;;;9.40;99.90;;;;;;5036927;28;20214;-81
2024/02/21 01:22:53;;;;;;;21.60;4.60;;;9.40;99.90;;;;;;5036633;28;20236;-81
2024/02/21 01:25:18;;;;;;;19.60;4.80;;;9.40;99.90;;;;;;5036664;28;20529;-81
2024/02/21 01:27:44;;;;;;;21.93;4.60;;;9.40;99.90;;;;;;5019008;28;20538;-81
2024/02/21 01:30:13;;;;;;;21.10;5.07;;;9.40;99.90;;;;;;5036677;28;20189;-81
2024/02/21 01:32:38;;;;;;;23.55;4.95;;;9.30;99.90;;;;;;5036713;28;20154;-81
2024/02/21 01:35:04;;;;;;;23.83;4.30;;;9.30;99.90;;;;;;5039822;28;20174;-82
2024/02/21 01:37:48;;;;;;;23.20;4.30;;;9.30;99.90;;;;;;5038020;28;20523;-82
2024/02/21 01:40:15;;;;;;;29.08;5.68;;;9.30;99.90;;;;;;5037753;28;20228;-82
2024/02/21 01:42:40;;;;;;;23.33;6.07;;;9.30;99.90;;;;;;5039272;28;20614;-82
2024/02/21 01:45:06;;;;;;;24.10;4.90;;;9.30;99.90;;;;;;5039341;28;20162;-82
2024/02/21 01:47:33;;;;;;;19.57;4.10;;;9.30;99.90;;;;;;5020825;28;20265;-82
2024/02/21 01:50:01;;;;;;;20.80;4.15;;;9.30;99.90;;;;;;5036887;28;20435;-82
2024/02/21 01:52:29;;;;;;;24.58;4.50;;;9.40;99.90;;;;;;5038407;28;20185;-82
2024/02/21 01:54:54;;;;;;;26.63;5.43;;;9.40;99.90;;;;;;5020888;28;20686;-82
2024/02/21 01:57:20;;;;;;;22.50;5.00;;;9.40;99.90;;;;;;5038951;28;20166;-82
2024/02/21 01:59:46;;;;;;;23.40;4.53;;;9.40;99.90;;;;;;5038177;28;20247;-82
2024/02/21 02:02:12;;;;;;;26.23;5.43;;;9.40;99.90;;;;;;5038479;28;20170;-82
2024/02/21 02:04:39;;;;;;;23.73;4.83;;;9.40;99.90;;;;;;5038185;28;20170;-82
2024/02/21 02:07:07;;;;;;;20.25;5.10;;;9.40;99.90;;;;;;5038861;28;20414;-82
2024/02/21 02:09:33;;;;;;;19.10;5.13;;;9.40;99.90;;;;;;5038326;28;20173;-82
2024/02/21 02:11:59;;;;;;;21.90;5.27;;;9.40;99.90;;;;;;5038472;28;20162;-82
2024/02/21 02:14:25;;;;;;;22.63;4.60;;;9.30;99.90;;;;;;5037783;28;20505;-82
2024/02/21 02:16:51;;;;;;;20.27;4.30;;;9.30;99.90;;;;;;5036864;28;20584;-82
2024/02/21 02:19:16;;;;;;;19.40;4.63;;;9.30;99.90;;;;;;5037800;28;20188;-82
2024/02/21 02:21:53;;;;;;;20.60;4.30;;;9.30;99.90;;;;;;5038093;28;20600;-82
2024/02/21 02:24:20;;;;;;;20.83;4.38;;;9.30;99.90;;;;;;5020525;28;20193;-82
2024/02/21 02:26:46;;;;;;;19.52;4.70;;;9.30;99.90;;;;;;5038036;28;20539;-82
2024/02/21 02:29:11;;;;;;;17.53;3.63;;;9.30;99.90;;;;;;5038234;28;20170;-82
2024/02/21 02:31:40;;;;;;;23.40;4.80;;;9.30;99.90;;;;;;5038055;28;20613;-82
2024/02/21 02:34:05;;;;;;;20.63;4.45;;;9.20;99.90;;;;;;5038309;28;20532;-82
2024/02/21 02:36:34;;;;;;;20.67;6.20;;;9.20;99.90;;;;;;5038496;28;20190;-82
2024/02/21 02:39:00;;;;;;;17.42;3.53;;;9.20;99.90;;;;;;5036500;28;20169;-81
2024/02/21 02:41:25;;;;;;;21.67;4.87;;;9.20;99.90;;;;;;5034795;28;20182;-81
2024/02/21 02:43:51;;;;;;;23.13;4.40;;;9.20;99.90;;;;;;5035566;28;20431;-81
2024/02/21 02:46:17;;;;;;;22.40;4.90;;;9.20;99.90;;;;;;5035161;28;20189;-81
2024/02/21 02:48:42;;;;;;;20.57;4.63;;;9.20;99.90;;;;;;5035618;28;20189;-81
2024/02/21 02:51:08;;;;;;;21.93;4.97;;;9.20;99.90;;;;;;5035277;28;20189;-81
2024/02/21 02:53:34;;;;;;;20.07;5.13;;;9.20;99.90;;;;;;5035606;28;20197;-81
2024/02/21 02:55:59;;;;;;;21.77;4.40;;;9.10;99.90;;;;;;5034855;28;20173;-81
2024/02/21 02:58:25;;;;;;;20.27;3.40;;;9.20;99.90;;;;;;5033870;28;20173;-81
2024/02/21 03:00:51;;;;;;;20.77;4.50;;;9.20;99.90;;;;;;5035250;28;20190;-81
2024/02/21 03:03:16;;;;;;;19.63;5.00;;;9.20;99.90;;;;;;5035083;28;20166;-81
2024/02/21 03:05:42;;;;;;;20.27;4.67;;;9.20;99.90;;;;;;5034771;28;20187;-81
2024/02/21 03:08:08;;;;;;;21.93;5.67;;;9.20;99.90;;;;;;5035532;28;20624;-81
2024/02/21 03:10:34;;;;;;;18.23;4.30;;;9.30;99.90;;;;;;5017346;28;20268;-81
2024/02/21 03:12:59;;;;;;;22.17;5.28;;;9.30;99.90;;;;;;5037300;28;20447;-82
2024/02/21 03:15:25;;;;;;;22.00;4.83;;;9.30;99.90;;;;;;5042360;28;20586;-82
2024/02/21 03:17:51;;;;;;;18.23;4.27;;;9.30;99.90;;;;;;5042089;28;20236;-82
2024/02/21 03:20:17;;;;;;;18.40;5.00;;;9.30;99.90;;;;;;5042087;28;20189;-82
2024/02/21 03:22:42;;;;;;;19.27;4.10;;;9.30;99.90;;;;;;5041557;28;20162;-82
2024/02/21 03:25:10;;;;;;;22.60;4.57;;;9.30;99.90;;;;;;5041633;28;20449;-82
2024/02/21 03:27:36;;;;;;;20.48;5.22;;;9.30;99.90;;;;;;5042153;28;20153;-82
2024/02/21 03:30:02;;;;;;;21.97;4.13;;;9.30;99.90;;;;;;5041957;28;20192;-82
2024/02/21 03:32:28;;;;;;;23.85;4.55;;;9.30;99.90;;;;;;5041791;28;20158;-82
2024/02/21 03:34:54;;;;;;;18.30;3.90;;;9.30;99.90;;;;;;5041576;28;20196;-82
2024/02/21 03:37:20;;;;;;;20.23;4.70;;;9.30;99.90;;;;;;5041835;28;20217;-82
2024/02/21 03:39:46;;;;;;;24.60;4.00;;;9.30;99.90;;;;;;5039561;28;20429;-82
2024/02/21 03:42:11;;;;;;;22.27;4.30;;;9.20;99.90;;;;;;5023543;28;20170;-81
2024/02/21 03:44:37;;;;;;;22.03;4.73;;;9.20;99.90;;;;;;5041054;28;20623;-82
2024/02/21 03:47:03;;;;;;;19.93;4.57;;;9.20;99.90;;;;;;5039587;28;20538;-82
2024/02/21 03:49:29;;;;;;;21.23;3.50;;;9.20;99.90;;;;;;5039280;28;20275;-82
2024/02/21 03:51:54;;;;;;;20.17;4.57;;;9.20;99.90;;;;;;5040650;28;20657;-82
2024/02/21 03:54:20;;;;;;;19.07;4.30;;;9.10;99.90;;;;;;5040166;28;20197;-82
2024/02/21 03:56:48;;;;;;;22.73;4.40;;;9.00;99.90;;;;;;5039610;28;20200;-82
2024/02/21 03:59:14;;;;;;;19.52;3.83;;;9.00;99.90;;;;;;5023130;28;20921;-82
2024/02/21 04:01:40;;;;;;;27.20;5.10;;;9.10;99.90;;;;;;5040746;28;20232;-82
2024/02/21 04:04:06;;;;;;;26.87;4.70;;;9.20;99.90;;;;;;5040411;28;20913;-82
2024/02/21 04:06:32;;;;;;;23.83;4.25;;;9.20;99.90;;;;;;5041053;28;20177;-82
2024/02/21 04:08:58;;;;;;;18.13;3.67;;;9.20;99.90;;;;;;5040503;28;20166;-82
2024/02/21 04:11:23;;;;;;;27.90;4.80;;;9.20;99.90;;;;;;5040699;28;20239;-82
2024/02/21 04:13:51;;;;;;;22.00;4.33;;;9.20;99.90;;;;;;5040525;28;20271;-82
2024/02/21 04:16:19;;;;;;;22.13;3.83;;;9.20;99.90;;;;;;5040708;28;20158;-82
2024/02/21 04:18:45;;;;;;;23.35;4.47;;;9.20;99.90;;;;;;5040520;28;20169;-82
2024/02/21 04:21:15;;;;;;;21.70;3.53;;;9.20;99.90;;;;;;5038909;28;20190;-82
2024/02/21 04:23:41;;;;;;;27.80;5.18;;;9.20;99.90;;;;;;5041024;28;20193;-82
2024/02/21 04:26:07;;;;;;;24.77;4.43;;;9.30;99.90;;;;;;5038891;28;20598;-81
2024/02/21 04:28:32;;;;;;;22.67;4.50;;;9.20;99.90;;;;;;5038602;28;20689;-81
2024/02/21 04:30:58;;;;;;;27.40;5.37;;;9.20;99.90;;;;;;5038331;28;20190;-81
2024/02/21 04:33:24;;;;;;;19.80;4.30;;;9.20;99.90;;;;;;5037840;28;20243;-81
2024/02/21 04:35:49;;;;;;;24.30;5.67;;;9.20;99.90;;;;;;5038302;28;20241;-81
2024/02/21 04:38:15;;;;;;;19.87;4.90;;;9.10;99.90;;;;;;5038352;28;20245;-82
2024/02/21 04:40:40;;;;;;;19.30;3.67;;;9.20;99.90;;;;;;5037692;28;20603;-81
2024/02/21 04:43:06;;;;;;;23.33;4.80;;;9.10;99.90;;;;;;5037940;28;20635;-81
2024/02/21 04:45:32;;;;;;;22.23;4.67;;;9.00;99.90;;;;;;5036520;28;20174;-81
2024/02/21 04:47:57;;;;;;;19.10;3.90;;;9.10;99.90;;;;;;5038076;28;20169;-81
2024/02/21 04:50:23;;;;;;;24.70;4.10;;;9.10;99.90;;;;;;5036320;28;20186;-81
2024/02/21 04:52:48;;;;;;;19.83;3.50;;;9.10;99.90;;;;;;5037785;28;20279;-81
2024/02/21 04:55:14;;;;;;;18.67;4.30;;;9.10;99.90;;;;;;5037738;28;20647;-81
2024/02/21 04:58:02;;;;;;;;;;;;;;;;;;;;;
2024/02/21 05:00:28;;;;;;;21.85;4.85;;;9.20;99.90;;;;;;5037572;28;20178;-80
2024/02/21 05:02:53;;;;;;;18.03;3.90;;;9.10;99.90;;;;;;5019861;28;20273;-82
2024/02/21 05:05:19;;;;;;;16.37;2.93;;;9.10;99.90;;;;;;5038063;28;20623;-81
2024/02/21 05:07:45;;;;;;;22.73;4.00;;;9.20;99.90;;;;;;5036484;28;20176;-81
2024/02/21 05:10:10;;;;;;;18.33;4.20;;;9.10;99.90;;;;;;5019934;28;20197;-82
2024/02/21 05:12:36;;;;;;;18.77;4.13;;;9.10;99.90;;;;;;5037695;28;20199;-81
2024/02/21 05:15:03;;;;;;;24.43;5.17;;;9.20;99.90;;;;;;5037660;28;20539;-82
2024/02/21 05:17:28;;;;;;;22.45;4.63;;;9.20;99.90;;;;;;5037717;28;20169;-81
2024/02/21 05:19:54;;;;;;;26.43;4.93;;;9.20;99.90;;;;;;5037701;28;20182;-81
2024/02/21 05:22:20;;;;;;;20.73;4.13;;;9.20;99.90;;;;;;5037767;28;20166;-82
2024/02/21 05:24:45;;;;;;;20.53;4.70;;;9.20;99.90;;;;;;5037195;28;20277;-81
2024/02/21 05:27:11;;;;;;;22.93;4.50;;;9.20;99.90;;;;;;5037865;28;20178;-81
2024/02/21 05:29:37;;;;;;;20.30;3.50;;;9.10;99.90;;;;;;5037840;28;20170;-82
2024/02/21 05:32:02;;;;;;;19.00;4.00;;;9.20;99.90;;;;;;5037711;28;20657;-82
2024/02/21 05:34:28;;;;;;;26.50;4.47;;;9.20;99.90;;;;;;5036492;28;20190;-82
2024/02/21 05:36:54;;;;;;;19.60;3.50;;;9.20;99.90;;;;;;5038932;28;20405;-82
2024/02/21 05:39:22;;;;;;;17.33;3.00;;;9.20;99.90;;;;;;5039991;28;20549;-82
2024/02/21 05:41:52;;;;;;;17.48;3.47;;;9.20;99.90;;;;;;5039735;28;20401;-82
2024/02/21 05:44:18;;;;;;;19.73;3.70;;;9.20;99.90;;;;;;5039070;28;20185;-84
2024/02/21 05:46:43;;;;;;;19.90;3.88;;;9.10;99.90;;;;;;5039452;28;20169;-82
2024/02/21 05:49:09;;;;;;;28.53;4.23;;;9.10;99.90;;;;;;5039135;28;20162;-82
2024/02/21 05:51:35;;;;;;;18.60;4.03;;;9.10;99.90;;;;;;5038622;28;20248;-82
2024/02/21 05:54:01;;;;;;;19.60;4.00;;;9.10;99.90;;;;;;5037571;28;20190;-82
2024/02/21 05:56:28;;;;;;;19.17;4.40;;;9.10;99.90;;;;;;5038462;28;20937;-82
2024/02/21 05:58:53;;;;;;;21.80;5.00;;;9.00;99.90;;;;;;5038680;28;20184;-82
2024/02/21 06:01:21;;;;;;;20.70;4.77;;;9.10;99.90;;;;;;5038741;28;20182;-82
2024/02/21 06:03:47;;;;;;;20.48;4.15;;;9.10;99.90;;;;;;5037079;28;20170;-82
2024/02/21 06:06:14;;;;;;;22.30;4.53;;;9.00;99.90;;;;;;5039099;28;20230;-82
2024/02/21 06:08:40;;;;;;;21.02;3.95;;;9.00;99.90;;;;;;5037064;28;20415;-82
2024/02/21 06:11:06;;;;;;;19.50;4.18;;;9.00;99.90;;;;;;5036984;28;20240;-82
2024/02/21 06:13:31;;;;;;;23.97;4.57;;;9.00;99.90;;;;;;5036858;28;20613;-82
2024/02/21 06:15:57;;;;;;;22.43;5.27;;;9.00;99.90;;;;;;5038130;28;20248;-82
2024/02/21 06:18:23;;;;;;;23.53;4.90;;;9.00;99.90;;;;;;5038893;28;20169;-82
2024/02/21 06:20:48;;;;;;;21.13;5.13;;;8.90;99.90;;;;;;5020556;28;20563;-82
2024/02/21 06:23:18;;;;;;;19.90;4.70;;;8.90;99.90;;;;;;5038315;28;20169;-82
2024/02/21 06:25:44;;;;;;;24.15;5.95;;;8.90;99.90;;;;;;5036886;28;20224;-82
2024/02/21 06:28:10;;;;;;;24.67;5.50;;;8.90;99.90;;;;;;5038357;28;20166;-82
2024/02/21 06:30:35;;;;;;;21.43;4.77;;;8.90;99.90;;;;;;5020100;28;20194;-81
2024/02/21 06:33:02;;;;;;;22.63;5.43;;;8.90;99.90;;;;;;5020339;28;20169;-81
2024/02/21 06:35:28;;;;;;;25.48;5.20;;;8.90;99.90;;;;;;5037747;28;20484;-81
2024/02/21 06:37:54;;;;;;;28.42;5.45;;;8.90;99.90;;;;;;5037502;28;20162;-81
2024/02/21 06:40:23;;;;;;;24.27;5.30;;;8.90;99.90;;;;;;5037800;28;20594;-81
2024/02/21 06:42:50;;;;;;;21.95;6.00;;;8.90;99.90;;;;;;5036182;28;20227;-82
2024/02/21 06:45:16;;;;;;;20.85;5.93;;;8.90;99.90;;;;;;5037124;28;20531;-82
2024/02/21 06:47:42;;;;;;;22.77;5.78;;;8.90;99.90;;;;;;5037055;28;20532;-81
2024/02/21 06:50:08;;;;;;;19.20;4.77;;;8.90;99.90;;;;;;5036542;28;20186;-82
2024/02/21 06:52:34;;;;;;;27.13;5.45;;;8.90;99.90;;;;;;5034361;28;20185;-82
2024/02/21 06:55:00;;;;;;;22.47;4.43;;;8.90;99.90;;;;;;5036336;28;20239;-81
2024/02/21 06:57:26;;;;;;;23.40;5.20;;;8.90;99.90;;;;;;5034312;28;20423;-81
2024/02/21 06:59:51;;;;;;;21.57;4.50;;;8.90;99.90;;;;;;5035893;28;20185;-82
2024/02/21 07:02:17;;;;;;;21.90;4.30;;;9.00;99.90;;;;;;5035712;28;20846;-81
2024/02/21 07:04:43;;;;;;;19.83;4.23;;;9.00;99.90;;;;;;5035896;28;20555;-81
2024/02/21 07:07:09;;;;;;;21.88;4.85;;;9.00;99.90;;;;;;5036072;28;20158;-82
2024/02/21 07:09:35;;;;;;;20.33;4.30;;;9.10;99.90;;;;;;5017635;28;20173;-82
2024/02/21 07:12:00;;;;;;;17.10;3.27;;;9.10;99.90;;;;;;5017702;28;20170;-81
2024/02/21 07:14:28;;;;;;;17.47;3.40;;;9.10;99.90;;;;;;5035466;28;20538;-81
2024/02/21 07:16:54;;;;;;;20.70;3.75;;;9.10;99.90;;;;;;5035538;28;20429;-81
2024/02/21 07:19:20;;;;;;;20.27;4.10;;;9.10;99.90;;;;;;5035563;28;20169;-82
2024/02/21 07:21:46;;;;;;;17.35;3.58;;;9.10;99.90;;;;;;5035463;28;20208;-81
2024/02/21 07:24:12;;;;;;;20.70;3.87;;;9.10;99.90;;;;;;5017701;28;20169;-81
2024/02/21 07:26:40;;;;;;;21.35;3.50;;;9.10;99.90;;;;;;5035316;28;20442;-81
2024/02/21 07:29:06;;;;;;;21.55;3.42;;;9.10;99.90;;;;;;5035180;28;20252;-81
2024/02/21 07:31:41;;;;;;;16.53;3.20;;;9.20;99.90;;;;;;5035211;28;20271;-81
2024/02/21 07:34:08;;;;;;;18.60;3.40;;;9.10;99.90;;;;;;5035023;28;20174;-81
2024/02/21 07:36:33;;;;;;;19.50;3.15;;;9.10;99.90;;;;;;5033961;28;20190;-81
2024/02/21 07:38:59;;;;;;;18.70;3.20;;;9.10;99.90;;;;;;5035078;28;20212;-81
2024/02/21 07:41:25;;;;;;;15.53;2.40;;;9.10;99.90;;;;;;5033506;28;20197;-81
2024/02/21 07:43:52;;;;;;;18.98;2.95;;;9.20;99.90;;;;;;5034743;28;20700;-81
2024/02/21 07:46:18;;;;;;;20.92;3.53;;;9.20;99.90;;;;;;5035044;28;20174;-80
2024/02/21 07:48:45;;;;;;;16.40;2.75;;;9.20;99.90;;;;;;5034734;28;20169;-81
2024/02/21 07:51:11;;;;;;;18.73;3.80;;;9.20;99.90;;;;;;5035614;28;20224;-80
2024/02/21 07:53:44;;;;;;;18.33;3.40;;;9.20;99.90;;;;;;5034633;28;20566;-80
2024/02/21 07:56:13;;;;;;;15.23;2.72;;;9.10;99.30;;;;;;5034738;28;20165;-80
2024/02/21 07:58:40;;;;;;;19.30;3.53;;;9.20;99.90;;;;;;5035655;28;20161;-81
2024/02/21 08:01:05;;;;;;;16.30;2.45;;;9.20;99.10;;;;;;5039565;28;20182;-81
2024/02/21 08:03:31;;;;;;;19.97;3.57;;;9.10;99.00;;;;;;5044555;28;20189;-81
2024/02/21 08:05:57;;;;;;;20.80;3.70;;;9.00;97.40;;;;;;5043463;28;20172;-81
2024/02/21 08:08:22;;;;;;;23.57;3.77;;;9.10;99.90;;;;;;5040430;28;20165;-82
2024/02/21 08:10:49;;;;;;;17.90;3.80;;;9.10;99.80;;;;;;5040543;28;20189;-81
2024/02/21 08:13:14;;;;;;;22.75;4.05;;;9.10;99.00;;;;;;5040284;28;20276;-82
2024/02/21 08:15:41;;;;;;;19.60;3.50;;;9.10;99.50;;;;;;5038267;28;20259;-81
2024/02/21 08:18:07;;;;;;;21.35;3.85;;;9.10;97.20;;;;;;5039007;28;20166;-81
2024/02/21 08:20:33;;;;;;;18.13;3.55;;;9.10;95.90;;;;;;5038306;28;20566;-82
2024/02/21 08:22:59;;;;;;;22.47;4.10;;;9.10;95.50;;;;;;5039346;28;20169;-82
2024/02/21 08:25:24;;;;;;;17.50;3.30;;;9.10;95.10;;;;;;5039720;28;20158;-81
2024/02/21 08:27:51;;;;;;;19.03;2.83;;;9.30;97.30;;;;;;5039641;28;20170;-81
2024/02/21 08:30:17;;;;;;;22.65;3.75;;;9.40;90.10;;;;;;5040487;28;20594;-81
2024/02/21 08:32:43;;;;;;;17.83;3.93;;;9.40;86.00;;;;;;5039676;28;20154;-82
2024/02/21 08:35:12;;;;;;;19.53;3.47;;;9.40;79.70;;;;;;5039511;28;20455;-82
2024/02/21 08:37:38;;;;;;;18.25;3.20;;;9.40;76.90;;;;;;5039410;28;20158;-81
2024/02/21 08:40:08;;;;;;;22.50;3.30;;;9.50;82.20;;;;;;5039195;28;20217;-81
2024/02/21 08:42:38;;;;;;;18.35;3.38;;;9.60;77.00;;;;;;5039496;28;20147;-82
2024/02/21 08:45:04;;;;;;;19.13;3.97;;;9.70;70.00;;;;;;5039819;28;20154;-82
2024/02/21 08:47:30;;;;;;;19.20;3.53;;;9.70;51.00;;;;;;5040019;28;20635;-82
2024/02/21 08:49:56;;;;;;;19.30;3.07;;;9.60;47.20;;;;;;5039874;28;20190;-82
2024/02/21 08:52:22;;;;;;;18.83;3.00;;;9.60;49.20;;;;;;5021008;28;20964;-81
2024/02/21 08:54:47;;;;;;;19.20;3.40;;;9.60;47.80;;;;;;5039590;28;20225;-81
2024/02/21 08:57:19;;;;;;;23.03;4.00;;;9.60;37.60;;;;;;5039180;28;20165;-82
2024/02/21 08:59:44;;;;;;;28.08;3.78;;;9.70;41.90;;;;;;5038203;28;20651;-81
2024/02/21 09:02:10;;;;;;;18.63;3.13;;;9.90;27.90;;;;;;5039551;28;20173;-81
2024/02/21 09:04:36;;;;;;;18.63;3.77;;;10.10;36.50;;;;;;5038934;28;20170;-81
2024/02/21 09:07:01;;;;;;;19.53;3.33;;;10.20;17.70;;;;;;5038876;28;20197;-82
2024/02/21 09:09:28;;;;;;;18.80;2.83;;;10.20;8.30;;;;;;5039270;28;20166;-82
2024/02/21 09:11:54;;;;;;;18.15;3.00;;;10.50;1.00;;;;;;5038557;28;20162;-82
2024/02/21 09:14:19;;;;;;;25.20;4.03;;;10.40;1.00;;;;;;5037398;28;20221;-82
2024/02/21 09:16:45;;;;;;;22.73;3.90;;;10.50;1.00;;;;;;5039443;28;20162;-82
2024/02/21 09:19:11;;;;;;;26.07;3.60;;;10.70;1.00;;;;;;5021887;28;20170;-82
2024/02/21 09:21:39;;;;;;;18.33;4.00;;;10.50;1.00;;;;;;5039171;28;20205;-81
2024/02/21 09:24:06;;;;;;;18.48;3.67;;;10.50;1.00;;;;;;5038782;28;20169;-81
2024/02/21 09:26:31;;;;;;;15.98;3.50;;;10.40;1.00;;;;;;5038211;28;20174;-82
2024/02/21 09:28:57;;;;;;;18.70;2.70;;;10.40;1.00;;;;;;5038505;28;20169;-81
2024/02/21 09:31:23;;;;;;;18.20;3.20;;;10.40;1.00;;;;;;5039209;28;20196;-81
2024/02/21 09:33:48;;;;;;;18.73;2.80;;;10.60;1.00;;;;;;5038367;28;20684;-81
2024/02/21 09:36:14;;;;;;;21.20;3.13;;;10.70;1.00;;;;;;5036849;28;20166;-81
2024/02/21 09:38:41;;;;;;;15.97;3.00;;;10.60;1.00;;;;;;5037637;28;20631;-82
2024/02/21 09:41:18;;;;;;;19.77;3.35;;;10.80;1.00;;;;;;5037621;28;20189;-82
2024/02/21 09:43:45;;;;;;;20.70;3.33;;;10.70;1.00;;;;;;5036945;28;20216;-82
2024/02/21 09:46:33;;;;;;;21.45;3.17;;;10.70;1.00;;;;;;5036953;28;20701;-82
2024/02/21 09:49:37;;;;;;;19.10;2.60;;;10.80;1.00;;;;;;5037250;28;20170;-81
2024/02/21 09:52:06;;;;;;;20.88;2.78;;;10.80;1.00;;;;;;5037542;28;20558;-82
2024/02/21 09:54:33;;;;;;;17.38;3.03;;;10.80;1.00;;;;;;5035756;28;20229;-81
2024/02/21 09:57:00;;;;;;;22.73;3.17;;;10.80;1.00;;;;;;5036881;28;20508;-81
2024/02/21 09:59:28;;;;;;;21.75;3.10;;;10.70;1.00;;;;;;5036702;28;20244;-81
2024/02/21 10:01:54;;;;;;;22.85;3.08;;;11.00;1.00;;;;;;5036638;28;20162;-80
2024/02/21 10:04:20;;;;;;;16.00;2.50;;;10.90;1.00;;;;;;5036562;28;20173;-81
2024/02/21 10:06:46;;;;;;;20.25;3.17;;;10.90;1.00;;;;;;5036095;28;20166;-81
2024/02/21 10:09:22;;;;;;;20.55;3.22;;;10.90;1.00;;;;;;5036194;28;20200;-80
2024/02/21 10:11:50;;;;;;;18.98;3.00;;;10.90;1.00;;;;;;5018546;28;20201;-81
2024/02/21 10:14:16;;;;;;;18.30;3.47;;;10.90;1.00;;;;;;5036266;28;20196;-81
2024/02/21 10:16:42;;;;;;;16.57;2.20;;;10.90;1.00;;;;;;5036237;28;20566;-80
2024/02/21 10:19:19;;;;;;;17.20;2.88;;;11.00;1.00;;;;;;5036213;28;20170;-81
2024/02/21 10:21:58;;;;;;;17.83;3.20;;;11.30;1.00;;;;;;5036243;28;20157;-81
2024/02/21 10:24:28;;;;;;;16.70;2.50;;;11.20;1.00;;;;;;5036069;28;20245;-81
2024/02/21 10:27:13;;;;;;;17.25;2.60;;;11.20;1.00;;;;;;5035850;28;20169;-81
2024/02/21 10:29:39;;;;;;;20.45;3.13;;;11.20;1.00;;;;;;5035543;28;20193;-81
2024/02/21 10:32:13;;;;;;;18.42;2.95;;;11.40;1.00;;;;;;5035433;28;20192;-80
2024/02/21 10:34:40;;;;;;;19.40;2.30;;;11.40;1.00;;;;;;5034353;28;20194;-82
2024/02/21 10:37:07;;;;;;;18.48;2.85;;;11.40;1.00;;;;;;5035950;28;20219;-81
2024/02/21 10:39:34;;;;;;;17.13;2.60;;;11.40;1.00;;;;;;5035967;28;20162;-80
2024/02/21 10:42:10;;;;;;;17.40;2.55;;;11.50;1.00;;;;;;5037742;28;20162;-82
2024/02/21 10:44:40;;;;;;;18.05;2.90;;;11.50;1.00;;;;;;5041226;28;20158;-82
2024/02/21 10:47:09;;;;;;;17.75;3.00;;;11.60;1.00;;;;;;5037933;28;20208;-82
2024/02/21 10:49:44;;;;;;;19.80;2.60;;;11.60;1.00;;;;;;5036182;28;20162;-81
2024/02/21 10:52:29;;;;;;;17.83;3.08;;;11.50;1.00;;;;;;5036504;28;20204;-82
2024/02/21 10:55:16;;;;;;;18.33;2.33;;;11.50;1.00;;;;;;5037889;28;20657;-82
2024/02/21 10:57:51;;;;;;;19.13;3.00;;;11.50;1.00;;;;;;5019508;28;20713;-82
2024/02/21 11:00:18;;;;;;;16.58;2.50;;;11.80;1.00;;;;;;5036334;28;20196;-82
2024/02/21 11:02:45;;;;;;;22.80;2.45;;;11.80;1.00;;;;;;5037192;28;20230;-82
2024/02/21 11:05:12;;;;;;;15.77;2.50;;;11.80;1.00;;;;;;5035622;28;20184;-82
2024/02/21 11:07:38;;;;;;;16.88;2.50;;;11.90;1.00;;;;;;5037140;28;20170;-82
2024/02/21 11:10:07;;;;;;;17.55;2.75;;;12.00;1.00;;;;;;5037018;28;20689;-82
2024/02/21 11:12:36;;;;;;;18.38;2.05;;;12.10;1.00;;;;;;5036806;28;20166;-82
2024/02/21 11:15:08;;;;;;;18.30;3.28;;;12.30;1.00;;;;;;5035692;28;20193;-82
2024/02/21 11:17:34;;;;;;;19.38;2.75;;;12.40;1.00;;;;;;5037023;28;20643;-82
2024/02/21 11:20:12;;;;;;;17.93;2.00;;;12.40;1.00;;;;;;5036985;28;20207;-82
2024/02/21 11:22:42;;;;;;;16.08;2.13;;;12.20;1.00;;;;;;5035762;28;20408;-82
2024/02/21 11:25:11;;;;;;;20.77;3.13;;;12.00;1.00;;;;;;5036972;28;20229;-82
2024/02/21 11:27:38;;;;;;;16.88;2.40;;;11.90;1.00;;;;;;5037476;28;20177;-82
2024/02/21 11:30:05;;;;;;;15.05;1.90;;;11.90;1.00;;;;;;5037172;28;20241;-82
2024/02/21 11:32:31;;;;;;;19.42;3.10;;;12.10;1.00;;;;;;5036671;28;20181;-82
2024/02/21 11:35:02;;;;;;;17.85;2.70;;;12.30;1.00;;;;;;5039991;28;20272;-82
2024/02/21 11:37:29;;;;;;;19.92;2.75;;;12.40;1.00;;;;;;5040977;28;20153;-82
2024/02/21 11:39:56;;;;;;;17.05;2.70;;;12.20;1.00;;;;;;5040411;28;20528;-82
2024/02/21 11:42:22;;;;;;;23.83;2.67;;;12.10;1.00;;;;;;5039539;28;20639;-82
2024/02/21 11:44:48;;;;;;;16.60;2.65;;;12.30;1.00;;;;;;5040533;28;20229;-82
2024/02/21 11:47:15;;;;;;;19.00;2.50;;;12.10;1.00;;;;;;5040351;28;20630;-82
2024/02/21 11:49:53;;;;;;;20.42;3.35;;;12.00;1.00;;;;;;5040396;28;20431;-82
2024/02/21 11:52:22;;;;;;;16.90;2.15;;;12.00;1.00;;;;;;5040888;28;20227;-82
2024/02/21 11:54:48;;;;;;;18.13;2.60;;;12.20;1.00;;;;;;5040681;28;20198;-82
2024/02/21 11:57:14;;;;;;;20.02;3.85;;;12.20;1.00;;;;;;5038857;28;20166;-82
2024/02/21 11:59:40;;;;;;;23.20;3.30;;;12.10;1.00;;;;;;5041129;28;20633;-81
2024/02/21 12:02:09;;;;;;;15.68;2.53;;;12.10;1.00;;;;;;5040075;28;20145;-82
2024/02/21 12:04:36;;;;;;;16.00;2.47;;;12.20;1.00;;;;;;5039006;28;20654;-80
2024/02/21 12:07:04;;;;;;;17.33;2.33;;;12.20;1.00;;;;;;5021383;28;20178;-82
2024/02/21 12:09:30;;;;;;;19.58;2.42;;;12.30;1.00;;;;;;5038793;28;20169;-82
2024/02/21 12:12:06;;;;;;;20.07;2.77;;;12.30;1.00;;;;;;5039176;28;20170;-82
2024/02/21 12:14:33;;;;;;;17.15;2.88;;;12.30;1.00;;;;;;5039639;28;20470;-82
2024/02/21 12:17:01;;;;;;;15.65;2.25;;;12.30;1.00;;;;;;5038830;28;20157;-82
2024/02/21 12:19:29;;;;;;;16.70;3.00;;;12.30;1.00;;;;;;5038435;28;20166;-82
2024/02/21 12:21:57;;;;;;;18.70;2.40;;;12.40;1.00;;;;;;5037534;28;20166;-82
2024/02/21 12:24:25;;;;;;;18.10;2.90;;;12.10;1.00;;;;;;5038722;28;20245;-82
2024/02/21 12:26:54;;;;;;;17.75;2.45;;;12.10;1.00;;;;;;5038569;28;20166;-82
2024/02/21 12:29:26;;;;;;;17.00;2.83;;;12.10;1.00;;;;;;5038862;28;20174;-82
2024/02/21 12:31:53;;;;;;;20.02;3.10;;;12.30;1.00;;;;;;5037492;28;20224;-81
2024/02/21 12:34:19;;;;;;;17.90;2.53;;;12.20;1.00;;;;;;5021109;28;20190;-82
2024/02/21 12:36:47;;;;;;;17.93;2.90;;;12.30;1.00;;;;;;5038412;28;20688;-82
2024/02/21 12:39:13;;;;;;;21.35;2.67;;;12.20;1.00;;;;;;5038453;28;20523;-82
2024/02/21 12:41:40;;;;;;;17.60;2.43;;;12.10;1.00;;;;;;5036490;28;20182;-82
2024/02/21 12:44:10;;;;;;;18.73;2.50;;;12.10;1.00;;;;;;5037950;28;20909;-82
2024/02/21 12:46:37;;;;;;;16.88;2.80;;;12.20;1.00;;;;;;5035912;28;20562;-82